createdAt,value
2023-03-29T00:00:16.800Z,6.90
2023-03-29T00:02:48.220Z,7.00
2023-03-29T00:05:17.206Z,7.00
2023-03-29T00:07:44.477Z,7.00
2023-03-29T00:10:12.957Z,7.00
2023-03-29T00:12:41.508Z,7.00
2023-03-29T00:15:08.955Z,7.00
2023-03-29T00:17:35.767Z,7.00
2023-03-29T00:20:03.182Z,7.00
2023-03-29T00:22:29.863Z,7.10
2023-03-29T00:24:56.531Z,7.10
2023-03-29T00:27:23.301Z,7.00
2023-03-29T00:29:49.999Z,7.10
2023-03-29T00:32:16.839Z,7.00
2023-03-29T00:34:46.001Z,7.10
2023-03-29T00:37:14.705Z,7.30
2023-03-29T00:39:42.122Z,7.30
2023-03-29T00:42:13.611Z,7.20
2023-03-29T00:45:18.936Z,7.10
2023-03-29T00:47:53.295Z,7.10
2023-03-29T00:50:33.011Z,6.90
2023-03-29T00:53:04.740Z,6.90
2023-03-29T00:55:44.279Z,6.90
2023-03-29T00:58:14.314Z,7.00
2023-03-29T01:00:52.427Z,6.90
2023-03-29T01:03:25.157Z,6.70
2023-03-29T01:05:57.698Z,6.60
2023-03-29T01:08:29.382Z,6.70
2023-03-29T01:11:07.140Z,6.80
2023-03-29T01:13:59.691Z,6.80
2023-03-29T01:16:28.951Z,6.90
2023-03-29T01:18:58.403Z,6.90
2023-03-29T01:21:37.799Z,6.80
2023-03-29T01:24:24.736Z,6.90
2023-03-29T01:27:15.648Z,7.00
2023-03-29T01:29:50.135Z,6.80
2023-03-29T01:32:22.263Z,6.70
2023-03-29T01:34:48.950Z,6.70
2023-03-29T01:37:28.540Z,6.70
2023-03-29T01:39:55.384Z,6.90
2023-03-29T01:42:59.919Z,6.80
2023-03-29T01:45:47.944Z,6.80
2023-03-29T01:48:35.861Z,6.70
2023-03-29T01:51:35.724Z,6.70
2023-03-29T01:54:33.106Z,6.70
2023-03-29T01:57:03.186Z,6.70
2023-03-29T01:59:33.615Z,6.70
2023-03-29T02:02:04.813Z,6.70
2023-03-29T02:04:39.773Z,6.80
2023-03-29T02:07:10.507Z,6.70
2023-03-29T02:09:38.628Z,6.60
2023-03-29T02:12:08.270Z,6.50
2023-03-29T02:14:35.491Z,6.50
2023-03-29T02:17:24.205Z,6.50
2023-03-29T02:20:14.923Z,6.60
2023-03-29T02:22:48.747Z,6.40
2023-03-29T02:25:17.517Z,6.50
2023-03-29T02:27:45.383Z,6.50
2023-03-29T02:30:13.406Z,6.50
2023-03-29T02:33:00.714Z,6.50
2023-03-29T02:35:36.128Z,6.50
2023-03-29T02:38:07.257Z,6.40
2023-03-29T02:40:37.540Z,6.30
2023-03-29T02:43:06.945Z,6.50
2023-03-29T02:45:36.054Z,6.60
2023-03-29T02:48:06.590Z,6.70
2023-03-29T02:50:41.744Z,6.80
2023-03-29T02:53:27.079Z,6.70
2023-03-29T02:55:54.966Z,6.60
2023-03-29T02:58:28.679Z,6.50
2023-03-29T03:00:58.049Z,6.70
2023-03-29T03:03:25.470Z,6.80
2023-03-29T03:05:52.794Z,6.60
2023-03-29T03:08:20.455Z,6.60
2023-03-29T03:10:48.216Z,6.70
2023-03-29T03:13:15.181Z,6.70
2023-03-29T03:15:42.855Z,6.70
2023-03-29T03:18:10.628Z,6.40
2023-03-29T03:20:37.429Z,6.20
2023-03-29T03:23:04.190Z,6.10
2023-03-29T03:25:32.361Z,6.10
2023-03-29T03:27:59.386Z,6.10
2023-03-29T03:30:26.097Z,6.10
2023-03-29T03:33:28.429Z,6.30
2023-03-29T03:36:13.893Z,6.30
2023-03-29T03:38:43.970Z,6.20
2023-03-29T03:41:11.215Z,6.20
2023-03-29T03:43:41.417Z,6.20
2023-03-29T03:46:08.624Z,6.10
2023-03-29T03:48:35.909Z,5.90
2023-03-29T03:51:12.990Z,5.90
2023-03-29T03:53:41.555Z,5.90
2023-03-29T03:56:11.073Z,6.00
2023-03-29T03:58:56.989Z,5.70
2023-03-29T04:01:24.539Z,5.70
2023-03-29T04:04:01.312Z,5.70
2023-03-29T04:06:30.544Z,5.80
2023-03-29T04:09:15.667Z,5.80
2023-03-29T04:11:48.044Z,5.70
2023-03-29T04:14:15.230Z,5.70
2023-03-29T04:17:01.421Z,5.70
2023-03-29T04:19:50.620Z,5.60
2023-03-29T04:22:17.671Z,5.60
2023-03-29T04:24:44.408Z,5.70
2023-03-29T04:27:29.788Z,5.70
2023-03-29T04:29:58.105Z,5.80
2023-03-29T04:32:47.748Z,5.80
2023-03-29T04:35:14.706Z,5.70
2023-03-29T04:37:41.774Z,5.80
2023-03-29T04:40:14.896Z,5.70
2023-03-29T04:42:57.643Z,5.60
2023-03-29T04:45:24.538Z,5.60
2023-03-29T04:48:10.615Z,5.60
2023-03-29T04:50:40.617Z,5.60
2023-03-29T04:53:08.429Z,5.60
2023-03-29T04:55:35.736Z,5.60
2023-03-29T04:58:02.821Z,5.60
2023-03-29T05:00:35.234Z,5.70
2023-03-29T05:03:02.461Z,5.70
2023-03-29T05:05:32.295Z,5.60
2023-03-29T05:08:02.111Z,5.60
2023-03-29T05:10:37.589Z,5.60
2023-03-29T05:13:04.325Z,5.60
2023-03-29T05:15:31.948Z,5.70
2023-03-29T05:18:00.641Z,5.80
2023-03-29T05:20:28.416Z,5.90
2023-03-29T05:22:56.377Z,5.60
2023-03-29T05:25:43.828Z,5.60
2023-03-29T05:28:11.010Z,5.60
2023-03-29T05:30:38.017Z,5.40
2023-03-29T05:33:13.226Z,5.30
2023-03-29T05:35:40.208Z,5.60
2023-03-29T05:38:08.894Z,5.60
2023-03-29T05:40:38.609Z,5.50
2023-03-29T05:43:19.490Z,5.70
2023-03-29T05:45:46.502Z,5.80
2023-03-29T05:48:13.402Z,5.80
2023-03-29T05:50:47.247Z,5.70
2023-03-29T05:53:14.611Z,5.70
2023-03-29T05:55:42.479Z,5.90
2023-03-29T05:58:12.966Z,5.80
2023-03-29T06:00:41.339Z,5.60
2023-03-29T06:03:27.400Z,5.60
2023-03-29T06:06:00.393Z,5.60
2023-03-29T06:08:28.493Z,5.90
2023-03-29T06:11:08.714Z,5.90
2023-03-29T06:13:58.628Z,6.00
2023-03-29T06:16:26.121Z,6.00
2023-03-29T06:18:53.201Z,5.80
2023-03-29T06:21:19.943Z,5.80
2023-03-29T06:23:47.349Z,5.80
2023-03-29T06:26:16.416Z,5.80
2023-03-29T06:28:46.170Z,5.90
2023-03-29T06:31:13.182Z,6.30
2023-03-29T06:33:43.069Z,6.20
2023-03-29T06:36:28.277Z,6.40
2023-03-29T06:38:55.353Z,6.60
2023-03-29T06:41:46.557Z,6.70
2023-03-29T06:44:36.277Z,7.00
2023-03-29T06:47:10.770Z,7.10
2023-03-29T06:49:38.086Z,7.20
2023-03-29T06:52:26.969Z,6.80
2023-03-29T06:54:53.915Z,6.80
2023-03-29T06:57:24.267Z,6.90
2023-03-29T06:59:51.551Z,7.00
2023-03-29T07:02:22.840Z,7.10
2023-03-29T07:04:56.142Z,7.00
2023-03-29T07:07:37.390Z,7.10
2023-03-29T07:10:13.541Z,7.30
2023-03-29T07:13:08.764Z,7.30
2023-03-29T07:15:36.011Z,7.50
2023-03-29T07:18:13.943Z,7.50
2023-03-29T07:20:41.755Z,7.70
2023-03-29T07:23:10.710Z,8.00
2023-03-29T07:25:39.234Z,7.80
2023-03-29T07:28:06.649Z,7.70
2023-03-29T07:30:34.213Z,7.80
2023-03-29T07:33:13.467Z,7.90
2023-03-29T07:36:01.899Z,8.10
2023-03-29T07:38:28.917Z,8.20
2023-03-29T07:41:07.814Z,8.10
2023-03-29T07:44:10.032Z,8.00
2023-03-29T07:46:38.810Z,8.00
2023-03-29T07:49:10.337Z,8.20
2023-03-29T07:51:39.822Z,8.50
2023-03-29T07:54:10.974Z,8.60
2023-03-29T07:56:54.290Z,8.60
2023-03-29T07:59:42.356Z,8.70
2023-03-29T08:02:19.546Z,8.60
2023-03-29T08:04:49.625Z,8.60
2023-03-29T08:07:19.949Z,8.70
2023-03-29T08:09:59.159Z,9.00
2023-03-29T08:12:45.904Z,9.10
2023-03-29T08:15:14.083Z,9.00
2023-03-29T08:17:41.684Z,9.20
2023-03-29T08:20:11.976Z,9.30
2023-03-29T08:22:41.145Z,9.20
2023-03-29T08:25:26.933Z,9.20
2023-03-29T08:27:54.546Z,9.30
2023-03-29T08:30:41.975Z,9.50
2023-03-29T08:33:08.892Z,9.60
2023-03-29T08:35:36.840Z,9.80
2023-03-29T08:38:13.155Z,9.80
2023-03-29T08:40:42.048Z,9.80
2023-03-29T08:43:28.768Z,9.90
2023-03-29T08:46:52.384Z,9.90
2023-03-29T08:49:44.556Z,10.00
2023-03-29T08:52:31.706Z,10.10
2023-03-29T08:55:24.843Z,10.10
2023-03-29T08:58:24.354Z,10.00
2023-03-29T09:00:58.361Z,10.10
2023-03-29T09:03:48.322Z,10.10
2023-03-29T09:06:24.892Z,10.10
2023-03-29T09:08:57.995Z,9.80
2023-03-29T09:11:40.903Z,9.80
2023-03-29T09:14:36.924Z,9.90
2023-03-29T09:17:15.573Z,9.90
2023-03-29T09:20:13.053Z,10.10
2023-03-29T09:23:14.495Z,10.10
2023-03-29T09:26:41.576Z,9.80
2023-03-29T09:29:55.353Z,9.80
2023-03-29T09:32:57.506Z,9.90
2023-03-29T09:36:02.747Z,10.00
2023-03-29T09:38:32.035Z,10.30
2023-03-29T09:41:13.271Z,10.30
2023-03-29T09:43:42.616Z,10.50
2023-03-29T09:46:24.342Z,10.60
2023-03-29T09:48:52.408Z,10.40
2023-03-29T09:51:24.200Z,10.50
2023-03-29T09:54:00.430Z,10.50
2023-03-29T09:56:52.583Z,10.40
2023-03-29T09:59:21.879Z,10.30
2023-03-29T10:01:48.734Z,10.50
2023-03-29T10:04:16.982Z,10.70
2023-03-29T10:06:52.453Z,10.90
2023-03-29T10:09:30.640Z,11.00
2023-03-29T10:12:08.603Z,11.20
2023-03-29T10:14:44.915Z,11.20
2023-03-29T10:17:41.554Z,11.20
2023-03-29T10:20:15.620Z,11.30
2023-03-29T10:22:48.572Z,11.60
2023-03-29T10:25:18.069Z,11.70
2023-03-29T10:27:47.843Z,12.00
2023-03-29T10:30:26.029Z,12.10
2023-03-29T10:32:59.076Z,12.20
2023-03-29T10:35:33.507Z,12.70
2023-03-29T10:38:04.656Z,13.00
2023-03-29T10:40:41.774Z,13.30
2023-03-29T10:43:19.132Z,13.20
2023-03-29T10:45:55.999Z,13.50
2023-03-29T10:48:31.120Z,13.40
2023-03-29T10:50:59.884Z,13.50
2023-03-29T10:53:31.061Z,13.50
2023-03-29T10:56:07.749Z,13.60
2023-03-29T10:58:46.996Z,13.70
2023-03-29T11:01:23.433Z,13.90
2023-03-29T11:04:28.986Z,14.00
2023-03-29T11:07:23.063Z,14.00
2023-03-29T11:09:59.154Z,14.50
2023-03-29T11:12:36.428Z,14.90
2023-03-29T11:15:27.860Z,15.30
2023-03-29T11:18:32.252Z,15.60
2023-03-29T11:21:23.362Z,15.90
2023-03-29T11:24:06.742Z,15.80
2023-03-29T11:26:58.380Z,15.90
2023-03-29T11:29:35.420Z,16.00
2023-03-29T11:32:43.766Z,16.20
2023-03-29T11:35:20.422Z,16.60
2023-03-29T11:38:01.922Z,16.90
2023-03-29T11:40:43.248Z,17.00
2023-03-29T11:43:28.900Z,17.10
2023-03-29T11:46:09.220Z,17.30
2023-03-29T11:48:43.307Z,17.20
2023-03-29T11:51:23.748Z,17.20
2023-03-29T11:54:03.468Z,17.20
2023-03-29T11:56:56.250Z,17.40
2023-03-29T11:59:37.433Z,17.60
2023-03-29T12:02:26.559Z,17.30
2023-03-29T12:04:57.582Z,17.00
2023-03-29T12:07:32.146Z,17.20
2023-03-29T12:10:19.736Z,17.70
2023-03-29T12:13:02.234Z,18.20
2023-03-29T12:15:42.164Z,18.40
2023-03-29T12:18:22.204Z,18.50
2023-03-29T12:20:57.442Z,18.60
2023-03-29T12:23:25.816Z,18.50
2023-03-29T12:26:30.239Z,18.20
2023-03-29T12:29:09.778Z,18.20
2023-03-29T12:31:55.579Z,18.20
2023-03-29T12:34:41.556Z,18.60
2023-03-29T12:37:58.608Z,18.80
2023-03-29T12:40:59.919Z,18.80
2023-03-29T12:43:53.492Z,18.70
2023-03-29T12:46:33.835Z,18.80
2023-03-29T12:49:41.144Z,18.90
2023-03-29T12:52:24.978Z,18.90
2023-03-29T12:54:58.495Z,19.20
2023-03-29T12:58:05.812Z,19.40
2023-03-29T13:00:45.418Z,19.20
2023-03-29T13:03:27.116Z,19.30
2023-03-29T13:06:03.022Z,19.40
2023-03-29T13:08:42.314Z,19.30
2023-03-29T13:11:25.147Z,19.20
2023-03-29T13:13:52.300Z,19.30
2023-03-29T13:16:28.028Z,19.30
2023-03-29T13:19:15.029Z,19.30
2023-03-29T13:22:06.238Z,19.70
2023-03-29T13:24:57.602Z,20.00
2023-03-29T13:27:50.911Z,19.40
2023-03-29T13:30:32.169Z,19.30
2023-03-29T13:33:13.720Z,19.40
2023-03-29T13:36:12.554Z,19.70
2023-03-29T13:38:52.009Z,19.40
2023-03-29T13:41:37.855Z,19.20
2023-03-29T13:44:17.189Z,19.30
2023-03-29T13:46:44.390Z,19.30
2023-03-29T13:49:21.278Z,18.90
2023-03-29T13:52:12.508Z,18.40
2023-03-29T13:54:45.879Z,18.50
2023-03-29T13:58:00.131Z,18.40
2023-03-29T14:00:40.350Z,18.50
2023-03-29T14:03:14.330Z,18.50
2023-03-29T14:05:47.457Z,18.70
2023-03-29T14:08:23.975Z,18.40
2023-03-29T14:10:51.960Z,17.90
2023-03-29T14:13:22.275Z,17.50
2023-03-29T14:16:02.816Z,17.10
2023-03-29T14:18:37.332Z,17.00
2023-03-29T14:21:04.453Z,16.60
2023-03-29T14:23:33.903Z,16.20
2023-03-29T14:26:30.718Z,15.70
2023-03-29T14:29:01.041Z,15.70
2023-03-29T14:31:36.708Z,15.70
2023-03-29T14:34:07.149Z,15.90
2023-03-29T14:36:34.609Z,15.90
2023-03-29T14:39:10.558Z,15.70
2023-03-29T14:41:38.760Z,15.80
2023-03-29T14:44:07.671Z,15.80
2023-03-29T14:46:35.073Z,15.70
2023-03-29T14:49:02.338Z,15.90
2023-03-29T14:51:31.023Z,16.20
2023-03-29T14:53:59.831Z,16.20
2023-03-29T14:56:27.474Z,16.10
2023-03-29T14:58:56.688Z,15.80
2023-03-29T15:01:26.007Z,15.80
2023-03-29T15:04:10.321Z,16.00
2023-03-29T15:06:44.062Z,15.90
2023-03-29T15:09:33.216Z,15.80
2023-03-29T15:12:01.978Z,15.40
2023-03-29T15:14:35.401Z,15.30
2023-03-29T15:17:16.197Z,15.20
2023-03-29T15:19:42.904Z,15.10
2023-03-29T15:22:12.179Z,15.00
2023-03-29T15:24:47.644Z,14.90
2023-03-29T15:27:17.352Z,14.90
2023-03-29T15:29:47.099Z,14.90
2023-03-29T15:32:23.012Z,15.20
2023-03-29T15:35:05.219Z,15.20
2023-03-29T15:37:32.917Z,15.40
2023-03-29T15:40:00.434Z,15.40
2023-03-29T15:42:27.683Z,15.40
2023-03-29T15:44:56.610Z,15.50
2023-03-29T15:47:24.299Z,15.60
2023-03-29T15:49:51.851Z,15.40
2023-03-29T15:52:19.515Z,15.40
2023-03-29T15:54:47.113Z,15.30
2023-03-29T15:57:16.246Z,15.20
2023-03-29T15:59:44.519Z,15.00
2023-03-29T16:02:15.644Z,15.00
2023-03-29T16:04:43.025Z,15.20
2023-03-29T16:07:17.673Z,15.30
2023-03-29T16:09:51.530Z,15.10
2023-03-29T16:12:24.657Z,15.20
2023-03-29T16:14:51.578Z,15.20
2023-03-29T16:17:18.406Z,15.30
2023-03-29T16:19:45.207Z,15.30
2023-03-29T16:22:12.414Z,15.40
2023-03-29T16:24:39.447Z,15.40
2023-03-29T16:27:06.464Z,15.30
2023-03-29T16:29:33.229Z,15.40
2023-03-29T16:32:20.904Z,15.30
2023-03-29T16:34:54.257Z,15.40
2023-03-29T16:37:26.973Z,15.30
2023-03-29T16:39:53.923Z,15.20
2023-03-29T16:42:20.658Z,15.30
2023-03-29T16:44:47.377Z,15.40
2023-03-29T16:47:14.207Z,15.30
2023-03-29T16:49:41.917Z,15.20
2023-03-29T16:52:10.579Z,15.30
2023-03-29T16:54:37.312Z,15.30
2023-03-29T16:57:04.234Z,15.40
2023-03-29T16:59:31.356Z,15.30
2023-03-29T17:01:58.714Z,15.30
2023-03-29T17:04:26.180Z,15.30
2023-03-29T17:06:53.503Z,15.20
2023-03-29T17:09:20.976Z,15.20
2023-03-29T17:11:47.720Z,15.20
2023-03-29T17:14:14.518Z,15.20
2023-03-29T17:16:41.343Z,15.10
2023-03-29T17:19:08.123Z,15.10
2023-03-29T17:21:34.850Z,15.20
2023-03-29T17:24:01.555Z,15.30
2023-03-29T17:26:28.451Z,15.20
2023-03-29T17:28:55.639Z,15.20
2023-03-29T17:31:22.361Z,15.00
2023-03-29T17:33:51.859Z,15.30
2023-03-29T17:36:23.742Z,15.10
2023-03-29T17:38:51.563Z,15.00
2023-03-29T17:41:19.159Z,15.00
2023-03-29T17:43:47.700Z,14.80
2023-03-29T17:46:16.391Z,14.80
2023-03-29T17:48:43.130Z,14.80
2023-03-29T17:51:09.827Z,15.00
2023-03-29T17:53:37.409Z,14.80
2023-03-29T17:56:04.752Z,14.60
2023-03-29T17:58:31.902Z,14.40
2023-03-29T18:00:58.629Z,14.50
2023-03-29T18:03:25.700Z,14.20
2023-03-29T18:05:52.543Z,14.10
2023-03-29T18:08:19.672Z,14.00
2023-03-29T18:10:46.688Z,14.00
2023-03-29T18:13:14.924Z,14.10
2023-03-29T18:15:55.319Z,14.20
2023-03-29T18:18:22.369Z,14.10
2023-03-29T18:20:50.197Z,14.00
2023-03-29T18:23:18.078Z,13.90
2023-03-29T18:25:44.757Z,13.90
2023-03-29T18:28:18.100Z,13.80
2023-03-29T18:30:44.847Z,14.00
2023-03-29T18:33:11.615Z,13.80
2023-03-29T18:35:38.450Z,13.80
2023-03-29T18:38:09.055Z,13.70
2023-03-29T18:40:36.070Z,13.50
2023-03-29T18:43:02.738Z,13.50
2023-03-29T18:45:37.540Z,13.50
2023-03-29T18:48:13.080Z,13.50
2023-03-29T18:50:50.262Z,13.50
2023-03-29T18:53:17.781Z,13.50
2023-03-29T18:55:44.616Z,13.40
2023-03-29T18:58:12.819Z,13.40
2023-03-29T19:00:40.570Z,13.30
2023-03-29T19:03:08.302Z,13.30
2023-03-29T19:05:39.679Z,13.20
2023-03-29T19:08:08.696Z,13.20
2023-03-29T19:10:41.743Z,13.10
2023-03-29T19:13:10.028Z,13.10
2023-03-29T19:15:41.161Z,13.00
2023-03-29T19:18:09.494Z,12.90
2023-03-29T19:20:37.732Z,12.90
2023-03-29T19:23:07.867Z,12.80
2023-03-29T19:25:35.236Z,12.70
2023-03-29T19:28:03.733Z,12.70
2023-03-29T19:30:31.241Z,12.70
2023-03-29T19:32:57.991Z,12.80
2023-03-29T19:35:24.959Z,12.90
2023-03-29T19:37:51.687Z,12.90
2023-03-29T19:40:19.934Z,12.80
2023-03-29T19:42:47.738Z,12.80
2023-03-29T19:45:14.518Z,12.70
2023-03-29T19:47:43.862Z,12.50
2023-03-29T19:50:12.253Z,12.30
2023-03-29T19:52:39.287Z,12.40
2023-03-29T19:55:07.420Z,12.30
2023-03-29T19:57:34.248Z,12.20
2023-03-29T20:00:01.590Z,12.30
2023-03-29T20:02:37.301Z,12.30
2023-03-29T20:05:08.504Z,12.20
2023-03-29T20:07:36.534Z,12.00
2023-03-29T20:10:07.511Z,12.00
2023-03-29T20:12:37.401Z,12.00
2023-03-29T20:15:04.908Z,12.10
2023-03-29T20:17:32.136Z,11.90
2023-03-29T20:20:00.386Z,11.70
2023-03-29T20:22:35.650Z,11.60
2023-03-29T20:25:02.555Z,11.70
2023-03-29T20:27:29.426Z,11.60
2023-03-29T20:29:56.195Z,11.70
2023-03-29T20:32:23.236Z,11.70
2023-03-29T20:34:49.930Z,11.60
2023-03-29T20:37:16.882Z,11.60
2023-03-29T20:39:50.365Z,11.60
2023-03-29T20:42:17.754Z,11.50
2023-03-29T20:44:54.193Z,11.30
2023-03-29T20:47:21.557Z,11.10
2023-03-29T20:49:54.032Z,11.00
2023-03-29T20:52:22.630Z,11.10
2023-03-29T20:54:50.444Z,11.10
2023-03-29T20:57:20.586Z,11.10
2023-03-29T20:59:49.107Z,11.20
2023-03-29T21:02:21.165Z,11.20
2023-03-29T21:04:52.811Z,11.00
2023-03-29T21:07:21.407Z,10.90
2023-03-29T21:09:49.942Z,10.80
2023-03-29T21:12:17.354Z,10.80
2023-03-29T21:14:44.659Z,10.80
2023-03-29T21:17:11.585Z,11.00
2023-03-29T21:19:39.286Z,10.90
2023-03-29T21:22:06.640Z,10.70
2023-03-29T21:24:33.824Z,10.70
2023-03-29T21:27:01.233Z,10.70
2023-03-29T21:29:28.041Z,10.60
2023-03-29T21:31:55.086Z,10.70
2023-03-29T21:34:22.326Z,10.70
2023-03-29T21:36:49.239Z,10.70
2023-03-29T21:39:16.006Z,10.70
2023-03-29T21:41:42.909Z,10.70
2023-03-29T21:44:09.731Z,10.50
2023-03-29T21:46:36.692Z,10.40
2023-03-29T21:49:03.408Z,10.50
2023-03-29T21:51:30.271Z,10.60
2023-03-29T21:53:56.919Z,10.40
2023-03-29T21:56:23.640Z,10.50
2023-03-29T21:58:50.563Z,10.40
2023-03-29T22:01:17.379Z,10.50
2023-03-29T22:03:44.234Z,10.50
2023-03-29T22:06:13.007Z,10.30
2023-03-29T22:08:39.943Z,10.40
2023-03-29T22:11:13.743Z,10.30
2023-03-29T22:13:41.992Z,10.30
2023-03-29T22:16:13.685Z,10.40
2023-03-29T22:18:49.944Z,10.40
2023-03-29T22:21:26.409Z,10.30
2023-03-29T22:23:55.463Z,10.40
2023-03-29T22:26:24.481Z,10.20
2023-03-29T22:28:51.651Z,10.10
2023-03-29T22:31:20.605Z,10.10
2023-03-29T22:33:47.825Z,9.90
2023-03-29T22:36:23.509Z,10.00
2023-03-29T22:38:51.513Z,10.00
2023-03-29T22:41:19.544Z,10.10
2023-03-29T22:43:46.909Z,10.10
2023-03-29T22:46:14.259Z,9.90
2023-03-29T22:48:41.260Z,9.80
2023-03-29T22:51:07.973Z,9.80
2023-03-29T22:53:35.206Z,9.90
2023-03-29T22:56:02.110Z,9.90
2023-03-29T22:58:31.803Z,9.90
2023-03-29T23:00:58.517Z,9.90
2023-03-29T23:03:25.248Z,10.00
2023-03-29T23:05:57.526Z,10.10
2023-03-29T23:08:25.671Z,10.20
2023-03-29T23:10:52.624Z,10.10
2023-03-29T23:13:28.734Z,10.10
2023-03-29T23:15:58.705Z,10.10
2023-03-29T23:18:27.706Z,10.10
2023-03-29T23:20:56.635Z,10.10
2023-03-29T23:23:25.368Z,9.90
2023-03-29T23:25:53.359Z,9.80
2023-03-29T23:28:23.574Z,9.90
2023-03-29T23:31:10.309Z,9.70
2023-03-29T23:33:40.531Z,9.60
2023-03-29T23:36:10.416Z,9.60
2023-03-29T23:38:38.820Z,9.70
2023-03-29T23:41:10.330Z,9.80
2023-03-29T23:43:40.340Z,9.60
2023-03-29T23:46:09.631Z,9.60
2023-03-29T23:48:36.983Z,9.50
2023-03-29T23:51:04.614Z,9.50
2023-03-29T23:53:32.045Z,9.80
2023-03-29T23:56:01.261Z,9.80
2023-03-29T23:58:29.326Z,9.70
